TimePST,TemperatureF,Dew PointF,Humidity,Sea Level PressureIn,VisibilityMPH,Wind Direction,Wind SpeedMPH,Gust SpeedMPH,PrecipitationIn,Events,Conditions,WindDirDegrees,DateUTC
12:53 AM,54.0,45.0,72,29.99,10.0,SE,4.6,-,N/A,,Mostly Cloudy,130,2013-02-18 08:53:00
1:53 AM,54.0,45.0,72,29.99,8.0,SSE,3.5,-,N/A,,Overcast,150,2013-02-18 09:53:00
2:53 AM,53.1,44.1,71,29.98,5.0,NNE,3.5,-,N/A,,Haze,30,2013-02-18 10:53:00
3:53 AM,53.1,44.1,71,29.99,5.0,East,3.5,-,N/A,,Haze,80,2013-02-18 11:53:00
4:53 AM,53.1,44.1,71,30.00,5.0,Calm,Calm,-,N/A,,Haze,0,2013-02-18 12:53:00
5:21 AM,53.6,44.6,72,30.04,5.0,South,3.5,-,N/A,,Haze,170,2013-02-18 13:21:00
5:53 AM,53.1,44.1,71,30.02,5.0,Calm,Calm,-,N/A,,Haze,0,2013-02-18 13:53:00
6:53 AM,53.1,42.1,66,30.03,7.0,ENE,5.8,-,N/A,,Overcast,70,2013-02-18 14:53:00
7:53 AM,54.0,42.1,64,30.04,7.0,ENE,3.5,-,N/A,,Overcast,70,2013-02-18 15:53:00
8:53 AM,54.0,43.0,66,30.04,7.0,SSE,4.6,-,N/A,,Overcast,160,2013-02-18 16:53:00
9:53 AM,55.0,42.1,62,30.04,7.0,South,3.5,-,N/A,,Overcast,190,2013-02-18 17:53:00
10:46 AM,57.2,42.8,59,30.06,10.0,Variable,3.5,-,N/A,,Partly Cloudy,0,2013-02-18 18:46:00
10:53 AM,57.9,42.1,56,30.04,10.0,ESE,5.8,-,N/A,,Partly Cloudy,120,2013-02-18 18:53:00
11:53 AM,61.0,42.1,50,30.01,10.0,Calm,Calm,-,N/A,,Clear,0,2013-02-18 19:53:00
12:53 PM,63.0,42.1,46,29.98,10.0,Variable,6.9,-,N/A,,Clear,0,2013-02-18 20:53:00
1:53 PM,64.0,41.0,43,29.95,10.0,South,6.9,-,N/A,,Clear,170,2013-02-18 21:53:00
2:53 PM,64.0,43.0,46,29.94,10.0,South,4.6,-,N/A,,Clear,170,2013-02-18 22:53:00
3:53 PM,63.0,43.0,48,29.92,10.0,South,9.2,-,N/A,,Clear,180,2013-02-18 23:53:00
4:53 PM,60.1,44.1,55,29.91,10.0,South,10.4,-,N/A,,Clear,180,2013-02-19 00:53:00
5:53 PM,55.9,45.0,67,29.92,10.0,South,9.2,-,N/A,,Clear,170,2013-02-19 01:53:00
6:28 PM,53.6,44.6,72,29.96,10.0,South,5.8,-,N/A,,Mostly Cloudy,190,2013-02-19 02:28:00
6:53 PM,54.0,44.1,69,29.95,10.0,SSW,5.8,-,N/A,,Overcast,200,2013-02-19 02:53:00
7:53 PM,54.0,44.1,69,29.96,10.0,SSW,4.6,-,N/A,,Overcast,210,2013-02-19 03:53:00
8:53 PM,54.0,44.1,69,29.97,10.0,SSW,4.6,-,N/A,,Overcast,210,2013-02-19 04:53:00
9:53 PM,54.0,43.0,66,29.97,10.0,Calm,Calm,-,N/A,,Overcast,0,2013-02-19 05:53:00
10:53 PM,54.0,43.0,66,29.95,10.0,South,3.5,-,N/A,,Overcast,170,2013-02-19 06:53:00
11:53 PM,54.0,44.1,69,29.95,10.0,SSE,5.8,-,N/A,,Overcast,160,2013-02-19 07:53:00